sensor_id;sensor_type;location;lat;lon;timestamp;P1;durP1;ratioP1;P2;durP2;ratioP2
61911;SDS011;49973;52.084;5.412;2023-04-06T00:00:07;13.27;;;6.67;;
61911;SDS011;49973;52.084;5.412;2023-04-06T00:02:37;11.57;;;6.20;;
61911;SDS011;49973;52.084;5.412;2023-04-06T00:05:07;11.63;;;6.40;;
61911;SDS011;49973;52.084;5.412;2023-04-06T00:07:36;12.27;;;6.60;;
61911;SDS011;49973;52.084;5.412;2023-04-06T00:10:05;10.80;;;6.53;;
61911;SDS011;49973;52.084;5.412;2023-04-06T00:12:34;12.43;;;6.33;;
61911;SDS011;49973;52.084;5.412;2023-04-06T00:15:03;12.90;;;6.53;;
61911;SDS011;49973;52.084;5.412;2023-04-06T00:17:33;12.53;;;6.80;;
61911;SDS011;49973;52.084;5.412;2023-04-06T00:20:02;13.70;;;6.93;;
61911;SDS011;49973;52.084;5.412;2023-04-06T00:22:33;10.47;;;6.10;;
61911;SDS011;49973;52.084;5.412;2023-04-06T00:25:02;13.17;;;7.03;;
61911;SDS011;49973;52.084;5.412;2023-04-06T00:27:31;16.83;;;7.37;;
61911;SDS011;49973;52.084;5.412;2023-04-06T00:30:00;20.93;;;8.03;;
61911;SDS011;49973;52.084;5.412;2023-04-06T00:32:28;11.23;;;5.93;;
61911;SDS011;49973;52.084;5.412;2023-04-06T00:34:57;16.10;;;7.73;;
61911;SDS011;49973;52.084;5.412;2023-04-06T00:37:26;15.17;;;7.30;;
61911;SDS011;49973;52.084;5.412;2023-04-06T00:39:56;10.90;;;6.17;;
61911;SDS011;49973;52.084;5.412;2023-04-06T00:42:25;10.40;;;6.33;;
61911;SDS011;49973;52.084;5.412;2023-04-06T00:44:54;15.23;;;7.30;;
61911;SDS011;49973;52.084;5.412;2023-04-06T00:47:24;19.23;;;6.83;;
61911;SDS011;49973;52.084;5.412;2023-04-06T00:49:53;12.57;;;6.10;;
61911;SDS011;49973;52.084;5.412;2023-04-06T00:52:22;14.33;;;6.53;;
61911;SDS011;49973;52.084;5.412;2023-04-06T00:54:52;16.10;;;7.00;;
61911;SDS011;49973;52.084;5.412;2023-04-06T00:57:23;10.10;;;6.70;;
61911;SDS011;49973;52.084;5.412;2023-04-06T00:59:54;13.70;;;6.73;;
61911;SDS011;49973;52.084;5.412;2023-04-06T01:02:24;15.77;;;8.70;;
61911;SDS011;49973;52.084;5.412;2023-04-06T01:04:54;13.00;;;7.87;;
61911;SDS011;49973;52.084;5.412;2023-04-06T01:07:28;13.60;;;6.93;;
61911;SDS011;49973;52.084;5.412;2023-04-06T01:10:06;17.53;;;7.87;;
61911;SDS011;49973;52.084;5.412;2023-04-06T01:12:37;11.53;;;6.90;;
61911;SDS011;49973;52.084;5.412;2023-04-06T01:15:15;15.80;;;8.00;;
61911;SDS011;49973;52.084;5.412;2023-04-06T01:17:49;15.43;;;7.87;;
61911;SDS011;49973;52.084;5.412;2023-04-06T01:20:18;11.93;;;7.10;;
61911;SDS011;49973;52.084;5.412;2023-04-06T01:22:48;11.83;;;7.37;;
61911;SDS011;49973;52.084;5.412;2023-04-06T01:25:18;14.30;;;7.43;;
61911;SDS011;49973;52.084;5.412;2023-04-06T01:28:05;15.73;;;7.77;;
61911;SDS011;49973;52.084;5.412;2023-04-06T01:31:03;13.63;;;8.17;;
61911;SDS011;49973;52.084;5.412;2023-04-06T01:33:48;16.77;;;7.93;;
61911;SDS011;49973;52.084;5.412;2023-04-06T01:36:20;14.17;;;7.20;;
61911;SDS011;49973;52.084;5.412;2023-04-06T01:39:00;11.30;;;7.73;;
61911;SDS011;49973;52.084;5.412;2023-04-06T01:41:34;16.13;;;7.33;;
61911;SDS011;49973;52.084;5.412;2023-04-06T01:44:02;18.07;;;7.83;;
61911;SDS011;49973;52.084;5.412;2023-04-06T01:46:32;12.87;;;7.10;;
61911;SDS011;49973;52.084;5.412;2023-04-06T01:49:03;16.60;;;7.97;;
61911;SDS011;49973;52.084;5.412;2023-04-06T01:51:35;14.03;;;7.70;;
61911;SDS011;49973;52.084;5.412;2023-04-06T01:54:08;13.23;;;7.33;;
61911;SDS011;49973;52.084;5.412;2023-04-06T01:56:57;16.70;;;8.00;;
61911;SDS011;49973;52.084;5.412;2023-04-06T01:59:32;11.90;;;7.37;;
61911;SDS011;49973;52.084;5.412;2023-04-06T02:02:07;16.43;;;7.83;;
61911;SDS011;49973;52.084;5.412;2023-04-06T02:04:38;15.53;;;7.50;;
61911;SDS011;49973;52.084;5.412;2023-04-06T02:07:10;15.27;;;7.67;;
61911;SDS011;49973;52.084;5.412;2023-04-06T02:09:40;12.77;;;8.07;;
61911;SDS011;49973;52.084;5.412;2023-04-06T02:12:14;12.97;;;7.53;;
61911;SDS011;49973;52.084;5.412;2023-04-06T02:14:43;15.73;;;8.60;;
61911;SDS011;49973;52.084;5.412;2023-04-06T02:17:12;14.37;;;8.03;;
61911;SDS011;49973;52.084;5.412;2023-04-06T02:19:40;14.93;;;7.97;;
61911;SDS011;49973;52.084;5.412;2023-04-06T02:22:09;13.33;;;8.43;;
61911;SDS011;49973;52.084;5.412;2023-04-06T02:24:39;16.90;;;7.93;;
61911;SDS011;49973;52.084;5.412;2023-04-06T02:27:08;13.20;;;7.40;;
61911;SDS011;49973;52.084;5.412;2023-04-06T02:29:37;15.70;;;8.00;;
61911;SDS011;49973;52.084;5.412;2023-04-06T02:32:05;16.80;;;7.93;;
61911;SDS011;49973;52.084;5.412;2023-04-06T02:34:35;13.10;;;7.07;;
61911;SDS011;49973;52.084;5.412;2023-04-06T02:37:04;13.00;;;7.43;;
61911;SDS011;49973;52.084;5.412;2023-04-06T02:39:32;13.43;;;7.07;;
61911;SDS011;49973;52.084;5.412;2023-04-06T02:42:04;18.37;;;8.20;;
61911;SDS011;49973;52.084;5.412;2023-04-06T02:44:32;14.17;;;7.70;;
61911;SDS011;49973;52.084;5.412;2023-04-06T02:47:01;16.87;;;7.63;;
61911;SDS011;49973;52.084;5.412;2023-04-06T02:49:30;12.77;;;7.90;;
61911;SDS011;49973;52.084;5.412;2023-04-06T02:51:59;15.30;;;8.10;;
61911;SDS011;49973;52.084;5.412;2023-04-06T02:54:32;12.07;;;7.17;;
61911;SDS011;49973;52.084;5.412;2023-04-06T02:57:03;14.03;;;7.10;;
61911;SDS011;49973;52.084;5.412;2023-04-06T02:59:42;15.20;;;8.30;;
61911;SDS011;49973;52.084;5.412;2023-04-06T03:02:22;15.20;;;8.43;;
61911;SDS011;49973;52.084;5.412;2023-04-06T03:04:55;14.03;;;7.87;;
61911;SDS011;49973;52.084;5.412;2023-04-06T03:07:30;13.10;;;7.87;;
61911;SDS011;49973;52.084;5.412;2023-04-06T03:09:59;15.93;;;7.60;;
61911;SDS011;49973;52.084;5.412;2023-04-06T03:12:31;14.00;;;8.23;;
61911;SDS011;49973;52.084;5.412;2023-04-06T03:15:15;13.87;;;7.00;;
61911;SDS011;49973;52.084;5.412;2023-04-06T03:17:50;13.57;;;7.53;;
61911;SDS011;49973;52.084;5.412;2023-04-06T03:20:31;16.07;;;7.97;;
61911;SDS011;49973;52.084;5.412;2023-04-06T03:23:00;16.53;;;7.90;;
61911;SDS011;49973;52.084;5.412;2023-04-06T03:25:34;13.17;;;7.07;;
61911;SDS011;49973;52.084;5.412;2023-04-06T03:28:06;11.33;;;7.53;;
61911;SDS011;49973;52.084;5.412;2023-04-06T03:30:44;16.33;;;8.20;;
61911;SDS011;49973;52.084;5.412;2023-04-06T03:33:16;13.10;;;7.20;;
61911;SDS011;49973;52.084;5.412;2023-04-06T03:35:52;11.47;;;6.53;;
61911;SDS011;49973;52.084;5.412;2023-04-06T03:38:23;12.20;;;7.30;;
61911;SDS011;49973;52.084;5.412;2023-04-06T03:40:53;13.90;;;6.93;;
61911;SDS011;49973;52.084;5.412;2023-04-06T03:43:26;11.30;;;6.80;;
61911;SDS011;49973;52.084;5.412;2023-04-06T03:45:55;13.60;;;6.97;;
61911;SDS011;49973;52.084;5.412;2023-04-06T03:48:26;15.43;;;7.30;;
61911;SDS011;49973;52.084;5.412;2023-04-06T03:50:54;12.47;;;6.90;;
61911;SDS011;49973;52.084;5.412;2023-04-06T03:53:26;12.53;;;7.67;;
61911;SDS011;49973;52.084;5.412;2023-04-06T03:55:54;13.60;;;6.03;;
61911;SDS011;49973;52.084;5.412;2023-04-06T03:58:23;14.10;;;7.43;;
61911;SDS011;49973;52.084;5.412;2023-04-06T04:00:53;14.07;;;8.30;;
61911;SDS011;49973;52.084;5.412;2023-04-06T04:03:22;12.57;;;6.83;;
61911;SDS011;49973;52.084;5.412;2023-04-06T04:05:54;12.73;;;6.80;;
61911;SDS011;49973;52.084;5.412;2023-04-06T04:08:24;11.77;;;7.10;;
61911;SDS011;49973;52.084;5.412;2023-04-06T04:10:53;12.90;;;7.50;;
61911;SDS011;49973;52.084;5.412;2023-04-06T04:13:22;14.97;;;7.10;;
61911;SDS011;49973;52.084;5.412;2023-04-06T04:15:52;12.40;;;7.03;;
61911;SDS011;49973;52.084;5.412;2023-04-06T04:18:21;12.63;;;7.40;;
61911;SDS011;49973;52.084;5.412;2023-04-06T04:20:50;12.43;;;7.60;;
61911;SDS011;49973;52.084;5.412;2023-04-06T04:23:21;12.13;;;6.43;;
61911;SDS011;49973;52.084;5.412;2023-04-06T04:25:49;15.63;;;7.37;;
61911;SDS011;49973;52.084;5.412;2023-04-06T04:28:18;12.17;;;6.73;;
61911;SDS011;49973;52.084;5.412;2023-04-06T04:30:47;13.17;;;6.73;;
61911;SDS011;49973;52.084;5.412;2023-04-06T04:33:17;13.87;;;6.83;;
61911;SDS011;49973;52.084;5.412;2023-04-06T04:35:46;15.60;;;7.70;;
61911;SDS011;49973;52.084;5.412;2023-04-06T04:38:18;11.43;;;6.70;;
61911;SDS011;49973;52.084;5.412;2023-04-06T04:40:51;15.53;;;7.50;;
61911;SDS011;49973;52.084;5.412;2023-04-06T04:43:21;16.67;;;7.77;;
61911;SDS011;49973;52.084;5.412;2023-04-06T04:45:50;11.93;;;6.43;;
61911;SDS011;49973;52.084;5.412;2023-04-06T04:48:40;15.70;;;7.10;;
61911;SDS011;49973;52.084;5.412;2023-04-06T04:51:09;14.40;;;7.50;;
61911;SDS011;49973;52.084;5.412;2023-04-06T04:54:01;11.77;;;7.60;;
61911;SDS011;49973;52.084;5.412;2023-04-06T04:56:31;12.83;;;7.03;;
61911;SDS011;49973;52.084;5.412;2023-04-06T04:59:26;13.93;;;6.80;;
61911;SDS011;49973;52.084;5.412;2023-04-06T05:02:03;12.33;;;7.40;;
61911;SDS011;49973;52.084;5.412;2023-04-06T05:04:43;13.97;;;7.33;;
61911;SDS011;49973;52.084;5.412;2023-04-06T05:07:18;14.37;;;8.07;;
61911;SDS011;49973;52.084;5.412;2023-04-06T05:09:49;12.30;;;6.97;;
61911;SDS011;49973;52.084;5.412;2023-04-06T05:12:18;13.83;;;8.07;;
61911;SDS011;49973;52.084;5.412;2023-04-06T05:14:58;15.40;;;7.67;;
61911;SDS011;49973;52.084;5.412;2023-04-06T05:17:27;16.17;;;8.40;;
61911;SDS011;49973;52.084;5.412;2023-04-06T05:19:57;17.90;;;8.30;;
61911;SDS011;49973;52.084;5.412;2023-04-06T05:22:29;15.10;;;8.10;;
61911;SDS011;49973;52.084;5.412;2023-04-06T05:25:05;17.47;;;8.30;;
61911;SDS011;49973;52.084;5.412;2023-04-06T05:27:34;16.07;;;8.13;;
61911;SDS011;49973;52.084;5.412;2023-04-06T05:30:08;18.53;;;9.13;;
61911;SDS011;49973;52.084;5.412;2023-04-06T05:32:44;13.87;;;7.87;;
61911;SDS011;49973;52.084;5.412;2023-04-06T05:35:15;17.57;;;8.60;;
61911;SDS011;49973;52.084;5.412;2023-04-06T05:37:48;14.37;;;7.93;;
61911;SDS011;49973;52.084;5.412;2023-04-06T05:40:20;18.10;;;9.73;;
61911;SDS011;49973;52.084;5.412;2023-04-06T05:42:49;15.77;;;8.30;;
61911;SDS011;49973;52.084;5.412;2023-04-06T05:45:19;14.10;;;8.10;;
61911;SDS011;49973;52.084;5.412;2023-04-06T05:47:53;14.67;;;8.07;;
61911;SDS011;49973;52.084;5.412;2023-04-06T05:50:26;17.63;;;8.63;;
61911;SDS011;49973;52.084;5.412;2023-04-06T05:52:56;18.63;;;8.87;;
61911;SDS011;49973;52.084;5.412;2023-04-06T05:55:30;15.20;;;8.70;;
61911;SDS011;49973;52.084;5.412;2023-04-06T05:58:09;13.17;;;7.57;;
61911;SDS011;49973;52.084;5.412;2023-04-06T06:00:37;19.10;;;8.63;;
61911;SDS011;49973;52.084;5.412;2023-04-06T06:03:08;16.00;;;7.83;;
61911;SDS011;49973;52.084;5.412;2023-04-06T06:05:41;18.30;;;8.00;;
61911;SDS011;49973;52.084;5.412;2023-04-06T06:08:16;15.80;;;7.97;;
61911;SDS011;49973;52.084;5.412;2023-04-06T06:10:47;16.63;;;8.60;;
61911;SDS011;49973;52.084;5.412;2023-04-06T06:13:19;18.97;;;9.30;;
61911;SDS011;49973;52.084;5.412;2023-04-06T06:15:49;17.57;;;9.10;;
61911;SDS011;49973;52.084;5.412;2023-04-06T06:18:19;15.37;;;8.43;;
61911;SDS011;49973;52.084;5.412;2023-04-06T06:20:52;17.80;;;9.00;;
61911;SDS011;49973;52.084;5.412;2023-04-06T06:23:21;13.37;;;7.93;;
61911;SDS011;49973;52.084;5.412;2023-04-06T06:25:49;11.97;;;8.17;;
61911;SDS011;49973;52.084;5.412;2023-04-06T06:28:20;15.07;;;8.50;;
61911;SDS011;49973;52.084;5.412;2023-04-06T06:30:50;16.03;;;8.43;;
61911;SDS011;49973;52.084;5.412;2023-04-06T06:33:21;20.60;;;8.40;;
61911;SDS011;49973;52.084;5.412;2023-04-06T06:35:54;23.97;;;8.87;;
61911;SDS011;49973;52.084;5.412;2023-04-06T06:38:23;15.40;;;8.33;;
61911;SDS011;49973;52.084;5.412;2023-04-06T06:40:52;19.17;;;9.87;;
61911;SDS011;49973;52.084;5.412;2023-04-06T06:43:24;17.07;;;8.87;;
61911;SDS011;49973;52.084;5.412;2023-04-06T06:45:58;17.27;;;8.23;;
61911;SDS011;49973;52.084;5.412;2023-04-06T06:48:27;20.23;;;9.57;;
61911;SDS011;49973;52.084;5.412;2023-04-06T06:50:57;14.60;;;9.53;;
61911;SDS011;49973;52.084;5.412;2023-04-06T06:53:26;18.97;;;9.80;;
61911;SDS011;49973;52.084;5.412;2023-04-06T06:55:55;15.70;;;9.60;;
61911;SDS011;49973;52.084;5.412;2023-04-06T06:58:24;19.07;;;10.10;;
61911;SDS011;49973;52.084;5.412;2023-04-06T07:00:55;17.87;;;9.80;;
61911;SDS011;49973;52.084;5.412;2023-04-06T07:03:26;17.50;;;9.67;;
61911;SDS011;49973;52.084;5.412;2023-04-06T07:05:55;17.63;;;8.87;;
61911;SDS011;49973;52.084;5.412;2023-04-06T07:08:26;23.63;;;9.97;;
61911;SDS011;49973;52.084;5.412;2023-04-06T07:10:55;20.13;;;9.47;;
61911;SDS011;49973;52.084;5.412;2023-04-06T07:13:23;18.63;;;9.50;;
61911;SDS011;49973;52.084;5.412;2023-04-06T07:15:56;19.30;;;9.90;;
61911;SDS011;49973;52.084;5.412;2023-04-06T07:18:25;21.40;;;9.23;;
61911;SDS011;49973;52.084;5.412;2023-04-06T07:20:55;21.00;;;10.17;;
61911;SDS011;49973;52.084;5.412;2023-04-06T07:23:25;24.63;;;9.90;;
61911;SDS011;49973;52.084;5.412;2023-04-06T07:25:54;24.63;;;10.87;;
61911;SDS011;49973;52.084;5.412;2023-04-06T07:28:23;18.93;;;10.53;;
61911;SDS011;49973;52.084;5.412;2023-04-06T07:30:56;21.37;;;10.53;;
61911;SDS011;49973;52.084;5.412;2023-04-06T07:33:25;20.73;;;10.53;;
61911;SDS011;49973;52.084;5.412;2023-04-06T07:35:59;20.20;;;10.40;;
61911;SDS011;49973;52.084;5.412;2023-04-06T07:38:30;19.13;;;9.97;;
61911;SDS011;49973;52.084;5.412;2023-04-06T07:40:58;18.60;;;11.17;;
61911;SDS011;49973;52.084;5.412;2023-04-06T07:43:30;16.40;;;10.60;;
61911;SDS011;49973;52.084;5.412;2023-04-06T07:46:01;16.50;;;9.33;;
61911;SDS011;49973;52.084;5.412;2023-04-06T07:48:30;19.50;;;10.67;;
61911;SDS011;49973;52.084;5.412;2023-04-06T07:51:02;19.03;;;11.00;;
61911;SDS011;49973;52.084;5.412;2023-04-06T07:53:36;17.57;;;10.00;;
61911;SDS011;49973;52.084;5.412;2023-04-06T07:56:05;20.47;;;9.93;;
61911;SDS011;49973;52.084;5.412;2023-04-06T07:58:34;18.20;;;10.87;;
61911;SDS011;49973;52.084;5.412;2023-04-06T08:01:03;18.53;;;10.23;;
61911;SDS011;49973;52.084;5.412;2023-04-06T08:03:33;20.63;;;9.67;;
61911;SDS011;49973;52.084;5.412;2023-04-06T08:06:02;24.10;;;11.43;;
61911;SDS011;49973;52.084;5.412;2023-04-06T08:08:31;17.77;;;11.37;;
61911;SDS011;49973;52.084;5.412;2023-04-06T08:11:01;19.23;;;9.90;;
61911;SDS011;49973;52.084;5.412;2023-04-06T08:13:30;19.43;;;10.57;;
61911;SDS011;49973;52.084;5.412;2023-04-06T08:15:59;18.13;;;11.20;;
61911;SDS011;49973;52.084;5.412;2023-04-06T08:18:28;23.83;;;10.83;;
61911;SDS011;49973;52.084;5.412;2023-04-06T08:20:56;22.63;;;10.77;;
61911;SDS011;49973;52.084;5.412;2023-04-06T08:23:25;24.20;;;10.73;;
61911;SDS011;49973;52.084;5.412;2023-04-06T08:25:54;24.07;;;11.43;;
61911;SDS011;49973;52.084;5.412;2023-04-06T08:28:24;16.50;;;10.47;;
61911;SDS011;49973;52.084;5.412;2023-04-06T08:30:52;26.23;;;11.30;;
61911;SDS011;49973;52.084;5.412;2023-04-06T08:33:21;20.87;;;11.20;;
61911;SDS011;49973;52.084;5.412;2023-04-06T08:35:50;19.30;;;9.43;;
61911;SDS011;49973;52.084;5.412;2023-04-06T08:38:18;26.17;;;11.43;;
61911;SDS011;49973;52.084;5.412;2023-04-06T08:40:47;22.97;;;11.40;;
61911;SDS011;49973;52.084;5.412;2023-04-06T08:43:17;24.13;;;10.57;;
61911;SDS011;49973;52.084;5.412;2023-04-06T08:45:51;29.53;;;11.37;;
61911;SDS011;49973;52.084;5.412;2023-04-06T08:48:20;16.87;;;10.63;;
61911;SDS011;49973;52.084;5.412;2023-04-06T08:50:50;21.23;;;11.07;;
61911;SDS011;49973;52.084;5.412;2023-04-06T08:53:19;19.80;;;11.97;;
61911;SDS011;49973;52.084;5.412;2023-04-06T08:55:50;18.03;;;11.10;;
61911;SDS011;49973;52.084;5.412;2023-04-06T08:58:19;23.50;;;11.97;;
61911;SDS011;49973;52.084;5.412;2023-04-06T09:01:06;23.70;;;11.83;;
61911;SDS011;49973;52.084;5.412;2023-04-06T09:03:37;23.80;;;11.50;;
61911;SDS011;49973;52.084;5.412;2023-04-06T09:06:07;23.73;;;12.33;;
61911;SDS011;49973;52.084;5.412;2023-04-06T09:08:38;23.70;;;11.87;;
61911;SDS011;49973;52.084;5.412;2023-04-06T09:11:07;23.87;;;11.80;;
61911;SDS011;49973;52.084;5.412;2023-04-06T09:13:47;21.30;;;10.70;;
61911;SDS011;49973;52.084;5.412;2023-04-06T09:16:18;18.97;;;11.83;;
61911;SDS011;49973;52.084;5.412;2023-04-06T09:18:48;24.83;;;11.23;;
61911;SDS011;49973;52.084;5.412;2023-04-06T09:21:18;22.83;;;12.07;;
61911;SDS011;49973;52.084;5.412;2023-04-06T09:23:57;19.70;;;11.57;;
61911;SDS011;49973;52.084;5.412;2023-04-06T09:26:27;17.47;;;10.97;;
61911;SDS011;49973;52.084;5.412;2023-04-06T09:28:57;23.43;;;11.70;;
61911;SDS011;49973;52.084;5.412;2023-04-06T09:31:29;25.77;;;13.00;;
61911;SDS011;49973;52.084;5.412;2023-04-06T09:34:00;27.63;;;12.40;;
61911;SDS011;49973;52.084;5.412;2023-04-06T09:36:30;22.53;;;11.30;;
61911;SDS011;49973;52.084;5.412;2023-04-06T09:39:00;27.20;;;12.00;;
61911;SDS011;49973;52.084;5.412;2023-04-06T09:41:30;27.93;;;12.50;;
61911;SDS011;49973;52.084;5.412;2023-04-06T09:44:03;27.30;;;11.63;;
61911;SDS011;49973;52.084;5.412;2023-04-06T09:46:35;23.83;;;11.83;;
61911;SDS011;49973;52.084;5.412;2023-04-06T09:49:24;25.73;;;11.73;;
61911;SDS011;49973;52.084;5.412;2023-04-06T09:51:58;23.13;;;11.57;;
61911;SDS011;49973;52.084;5.412;2023-04-06T09:54:28;24.50;;;12.70;;
61911;SDS011;49973;52.084;5.412;2023-04-06T09:57:00;21.17;;;12.30;;
61911;SDS011;49973;52.084;5.412;2023-04-06T09:59:37;24.27;;;13.27;;
61911;SDS011;49973;52.084;5.412;2023-04-06T10:02:15;30.50;;;12.90;;
61911;SDS011;49973;52.084;5.412;2023-04-06T10:04:53;24.37;;;13.57;;
61911;SDS011;49973;52.084;5.412;2023-04-06T10:07:25;25.63;;;12.97;;
61911;SDS011;49973;52.084;5.412;2023-04-06T10:09:55;22.50;;;12.13;;
61911;SDS011;49973;52.084;5.412;2023-04-06T10:12:24;25.23;;;12.83;;
61911;SDS011;49973;52.084;5.412;2023-04-06T10:14:52;26.30;;;12.67;;
61911;SDS011;49973;52.084;5.412;2023-04-06T10:17:23;24.80;;;13.97;;
61911;SDS011;49973;52.084;5.412;2023-04-06T10:19:53;27.20;;;13.37;;
61911;SDS011;49973;52.084;5.412;2023-04-06T10:22:26;23.53;;;11.07;;
61911;SDS011;49973;52.084;5.412;2023-04-06T10:25:03;22.27;;;11.40;;
61911;SDS011;49973;52.084;5.412;2023-04-06T10:27:32;23.10;;;11.13;;
61911;SDS011;49973;52.084;5.412;2023-04-06T10:30:01;21.90;;;9.80;;
61911;SDS011;49973;52.084;5.412;2023-04-06T10:32:36;18.57;;;9.70;;
61911;SDS011;49973;52.084;5.412;2023-04-06T10:35:06;15.27;;;7.80;;
61911;SDS011;49973;52.084;5.412;2023-04-06T10:37:51;12.60;;;6.93;;
61911;SDS011;49973;52.084;5.412;2023-04-06T10:40:24;11.50;;;6.07;;
61911;SDS011;49973;52.084;5.412;2023-04-06T10:42:54;15.53;;;7.50;;
61911;SDS011;49973;52.084;5.412;2023-04-06T10:45:24;11.90;;;6.17;;
61911;SDS011;49973;52.084;5.412;2023-04-06T10:47:55;16.27;;;6.23;;
61911;SDS011;49973;52.084;5.412;2023-04-06T10:50:24;11.10;;;6.73;;
61911;SDS011;49973;52.084;5.412;2023-04-06T10:52:59;8.17;;;5.23;;
61911;SDS011;49973;52.084;5.412;2023-04-06T10:55:28;8.73;;;5.20;;
61911;SDS011;49973;52.084;5.412;2023-04-06T10:57:58;8.20;;;4.63;;
61911;SDS011;49973;52.084;5.412;2023-04-06T11:00:27;12.13;;;4.83;;
61911;SDS011;49973;52.084;5.412;2023-04-06T11:03:10;7.77;;;5.00;;
61911;SDS011;49973;52.084;5.412;2023-04-06T11:05:42;6.93;;;4.80;;
61911;SDS011;49973;52.084;5.412;2023-04-06T11:08:24;10.00;;;5.23;;
61911;SDS011;49973;52.084;5.412;2023-04-06T11:11:03;5.57;;;3.50;;
61911;SDS011;49973;52.084;5.412;2023-04-06T11:13:38;7.23;;;4.13;;
61911;SDS011;49973;52.084;5.412;2023-04-06T11:16:12;7.10;;;4.10;;
61911;SDS011;49973;52.084;5.412;2023-04-06T11:18:53;6.17;;;4.27;;
61911;SDS011;49973;52.084;5.412;2023-04-06T11:21:33;13.17;;;4.73;;
61911;SDS011;49973;52.084;5.412;2023-04-06T11:24:04;9.83;;;4.70;;
61911;SDS011;49973;52.084;5.412;2023-04-06T11:26:37;7.20;;;4.90;;
61911;SDS011;49973;52.084;5.412;2023-04-06T11:29:10;8.60;;;4.43;;
61911;SDS011;49973;52.084;5.412;2023-04-06T11:31:40;10.70;;;4.17;;
61911;SDS011;49973;52.084;5.412;2023-04-06T11:34:12;6.47;;;4.10;;
61911;SDS011;49973;52.084;5.412;2023-04-06T11:36:42;8.43;;;4.73;;
61911;SDS011;49973;52.084;5.412;2023-04-06T11:39:11;7.77;;;4.67;;
61911;SDS011;49973;52.084;5.412;2023-04-06T11:41:40;6.77;;;3.83;;
61911;SDS011;49973;52.084;5.412;2023-04-06T11:44:10;5.60;;;3.80;;
61911;SDS011;49973;52.084;5.412;2023-04-06T11:46:38;5.87;;;3.63;;
61911;SDS011;49973;52.084;5.412;2023-04-06T11:49:07;5.27;;;3.80;;
61911;SDS011;49973;52.084;5.412;2023-04-06T11:51:37;7.13;;;4.50;;
61911;SDS011;49973;52.084;5.412;2023-04-06T11:54:06;6.93;;;4.37;;
61911;SDS011;49973;52.084;5.412;2023-04-06T11:56:35;6.83;;;4.07;;
61911;SDS011;49973;52.084;5.412;2023-04-06T11:59:03;9.57;;;4.87;;
61911;SDS011;49973;52.084;5.412;2023-04-06T12:01:32;7.60;;;4.43;;
61911;SDS011;49973;52.084;5.412;2023-04-06T12:04:05;9.37;;;4.83;;
61911;SDS011;49973;52.084;5.412;2023-04-06T12:06:33;7.90;;;4.90;;
61911;SDS011;49973;52.084;5.412;2023-04-06T12:09:04;8.13;;;4.87;;
61911;SDS011;49973;52.084;5.412;2023-04-06T12:11:32;7.90;;;4.87;;
61911;SDS011;49973;52.084;5.412;2023-04-06T12:14:01;9.50;;;5.60;;
61911;SDS011;49973;52.084;5.412;2023-04-06T12:16:31;7.80;;;5.03;;
61911;SDS011;49973;52.084;5.412;2023-04-06T12:19:00;9.33;;;4.63;;
61911;SDS011;49973;52.084;5.412;2023-04-06T12:21:29;7.83;;;5.13;;
61911;SDS011;49973;52.084;5.412;2023-04-06T12:23:59;9.70;;;5.37;;
61911;SDS011;49973;52.084;5.412;2023-04-06T12:26:29;10.17;;;5.67;;
61911;SDS011;49973;52.084;5.412;2023-04-06T12:28:58;9.47;;;5.13;;
61911;SDS011;49973;52.084;5.412;2023-04-06T12:31:34;10.03;;;6.00;;
61911;SDS011;49973;52.084;5.412;2023-04-06T12:34:05;12.97;;;5.90;;
61911;SDS011;49973;52.084;5.412;2023-04-06T12:36:34;9.03;;;5.60;;
61911;SDS011;49973;52.084;5.412;2023-04-06T12:39:05;11.67;;;5.60;;
61911;SDS011;49973;52.084;5.412;2023-04-06T12:41:35;10.50;;;5.97;;
61911;SDS011;49973;52.084;5.412;2023-04-06T12:44:07;13.50;;;5.73;;
61911;SDS011;49973;52.084;5.412;2023-04-06T12:46:35;11.30;;;6.13;;
61911;SDS011;49973;52.084;5.412;2023-04-06T12:49:04;11.57;;;6.70;;
61911;SDS011;49973;52.084;5.412;2023-04-06T12:51:33;11.33;;;5.70;;
61911;SDS011;49973;52.084;5.412;2023-04-06T12:54:02;9.73;;;6.00;;
61911;SDS011;49973;52.084;5.412;2023-04-06T12:56:30;12.67;;;6.53;;
61911;SDS011;49973;52.084;5.412;2023-04-06T12:59:00;10.40;;;6.33;;
61911;SDS011;49973;52.084;5.412;2023-04-06T13:01:29;13.40;;;5.57;;
61911;SDS011;49973;52.084;5.412;2023-04-06T13:03:58;10.00;;;5.90;;
61911;SDS011;49973;52.084;5.412;2023-04-06T13:06:26;10.43;;;6.10;;
61911;SDS011;49973;52.084;5.412;2023-04-06T13:08:56;14.37;;;5.80;;
61911;SDS011;49973;52.084;5.412;2023-04-06T13:11:25;11.67;;;7.13;;
61911;SDS011;49973;52.084;5.412;2023-04-06T13:13:54;10.70;;;6.93;;
61911;SDS011;49973;52.084;5.412;2023-04-06T13:16:24;10.83;;;6.40;;
61911;SDS011;49973;52.084;5.412;2023-04-06T13:18:53;10.10;;;6.20;;
61911;SDS011;49973;52.084;5.412;2023-04-06T13:21:22;10.70;;;6.70;;
61911;SDS011;49973;52.084;5.412;2023-04-06T13:23:50;8.83;;;5.97;;
61911;SDS011;49973;52.084;5.412;2023-04-06T13:26:19;12.77;;;6.80;;
61911;SDS011;49973;52.084;5.412;2023-04-06T13:28:48;10.37;;;6.10;;
61911;SDS011;49973;52.084;5.412;2023-04-06T13:31:17;12.07;;;6.87;;
61911;SDS011;49973;52.084;5.412;2023-04-06T13:33:47;11.67;;;6.63;;
61911;SDS011;49973;52.084;5.412;2023-04-06T13:36:15;11.70;;;6.57;;
61911;SDS011;49973;52.084;5.412;2023-04-06T13:38:44;9.80;;;6.27;;
61911;SDS011;49973;52.084;5.412;2023-04-06T13:41:17;14.07;;;7.17;;
61911;SDS011;49973;52.084;5.412;2023-04-06T13:43:47;10.53;;;7.03;;
61911;SDS011;49973;52.084;5.412;2023-04-06T13:46:16;11.20;;;6.57;;
61911;SDS011;49973;52.084;5.412;2023-04-06T13:48:47;12.33;;;7.20;;
61911;SDS011;49973;52.084;5.412;2023-04-06T13:51:16;12.20;;;6.90;;
61911;SDS011;49973;52.084;5.412;2023-04-06T13:53:45;11.60;;;7.50;;
61911;SDS011;49973;52.084;5.412;2023-04-06T13:56:13;16.57;;;8.77;;
61911;SDS011;49973;52.084;5.412;2023-04-06T13:58:42;10.33;;;6.57;;
61911;SDS011;49973;52.084;5.412;2023-04-06T14:01:11;10.57;;;6.37;;
61911;SDS011;49973;52.084;5.412;2023-04-06T14:03:40;11.80;;;7.03;;
61911;SDS011;49973;52.084;5.412;2023-04-06T14:06:13;12.73;;;6.50;;
61911;SDS011;49973;52.084;5.412;2023-04-06T14:08:56;12.00;;;6.67;;
61911;SDS011;49973;52.084;5.412;2023-04-06T14:11:25;12.57;;;7.00;;
61911;SDS011;49973;52.084;5.412;2023-04-06T14:13:54;13.43;;;6.63;;
61911;SDS011;49973;52.084;5.412;2023-04-06T14:16:24;16.73;;;7.43;;
61911;SDS011;49973;52.084;5.412;2023-04-06T14:18:53;13.93;;;7.37;;
61911;SDS011;49973;52.084;5.412;2023-04-06T14:21:26;12.80;;;7.13;;
61911;SDS011;49973;52.084;5.412;2023-04-06T14:23:54;13.40;;;6.77;;
61911;SDS011;49973;52.084;5.412;2023-04-06T14:26:25;12.17;;;7.00;;
61911;SDS011;49973;52.084;5.412;2023-04-06T14:28:54;15.37;;;7.60;;
61911;SDS011;49973;52.084;5.412;2023-04-06T14:31:23;14.13;;;7.20;;
61911;SDS011;49973;52.084;5.412;2023-04-06T14:33:51;13.53;;;7.77;;
61911;SDS011;49973;52.084;5.412;2023-04-06T14:36:20;12.37;;;6.70;;
61911;SDS011;49973;52.084;5.412;2023-04-06T14:38:50;15.90;;;7.60;;
61911;SDS011;49973;52.084;5.412;2023-04-06T14:41:19;12.70;;;7.43;;
61911;SDS011;49973;52.084;5.412;2023-04-06T14:43:50;14.77;;;8.00;;
61911;SDS011;49973;52.084;5.412;2023-04-06T14:46:20;15.80;;;7.23;;
61911;SDS011;49973;52.084;5.412;2023-04-06T14:48:48;17.67;;;7.37;;
61911;SDS011;49973;52.084;5.412;2023-04-06T14:51:17;14.37;;;7.13;;
61911;SDS011;49973;52.084;5.412;2023-04-06T14:53:46;12.70;;;7.63;;
61911;SDS011;49973;52.084;5.412;2023-04-06T14:56:19;12.50;;;7.07;;